Time;durP1;ratioP1;P1;durP2;ratioP2;P2;SDS_P1;SDS_P2;PMS_P1;PMS_P2;Temp;Humidity;BMP_temperature;BMP_pressure;BME280_temperature;BME280_humidity;BME280_pressure;Samples;Min_cycle;Max_cycle;Signal;HPM_P1;HPM_P2
2023/12/12 04:00:52;;;;;;;4.30;1.55;;;24.10;31.40;;;;;;5721599;22;45700;-85
2023/12/12 04:03:17;;;;;;;4.63;1.53;;;24.10;31.40;;;;;;4898808;28;45075;-87
2023/12/12 04:05:44;;;;;;;3.83;1.40;;;24.10;31.40;;;;;;4899085;28;47499;-85
2023/12/12 04:08:10;;;;;;;4.57;1.45;;;24.10;31.40;;;;;;4869103;28;45786;-85
2023/12/12 04:10:36;;;;;;;4.55;1.60;;;24.10;31.40;;;;;;4869493;28;45387;-85
2023/12/12 04:13:03;;;;;;;4.47;1.58;;;24.10;31.40;;;;;;4914269;28;45721;-85
2023/12/12 04:15:31;;;;;;;3.75;1.40;;;24.10;31.40;;;;;;4897081;28;46349;-82
2023/12/12 04:17:57;;;;;;;3.65;1.20;;;24.10;31.40;;;;;;4902250;28;45565;-86
2023/12/12 04:20:27;;;;;;;3.95;1.50;;;24.10;31.40;;;;;;4864819;28;44910;-84
2023/12/12 04:22:52;;;;;;;4.40;1.70;;;24.10;31.40;;;;;;4885276;28;45555;-86
2023/12/12 04:25:32;;;;;;;3.47;1.57;;;24.10;31.40;;;;;;4869833;29;46074;-90
2023/12/12 04:27:58;;;;;;;3.33;1.50;;;24.10;31.40;;;;;;4893029;28;45324;-85
2023/12/12 04:30:24;;;;;;;3.35;1.63;;;24.10;31.40;;;;;;4891014;28;45268;-87
2023/12/12 04:32:50;;;;;;;4.47;1.77;;;24.10;31.40;;;;;;4892421;28;45309;-86
2023/12/12 04:35:16;;;;;;;4.05;1.40;;;24.10;31.30;;;;;;4875708;28;45598;-82
2023/12/12 04:37:42;;;;;;;4.53;1.70;;;24.10;31.30;;;;;;4915252;28;45340;-83
2023/12/12 04:40:09;;;;;;;4.43;1.70;;;24.10;31.40;;;;;;4899161;28;45788;-86
2023/12/12 04:42:36;;;;;;;4.00;1.42;;;24.00;31.40;;;;;;4915627;28;44915;-86
2023/12/12 04:45:01;;;;;;;3.90;1.50;;;24.10;31.40;;;;;;4872650;28;45931;-84
2023/12/12 04:47:27;;;;;;;3.43;1.53;;;24.00;31.30;;;;;;4881858;28;45550;-83
2023/12/12 04:49:56;;;;;;;4.03;1.50;;;24.00;31.30;;;;;;4904110;28;45278;-83
2023/12/12 04:52:22;;;;;;;3.75;1.60;;;24.00;31.40;;;;;;4886341;28;45524;-85
2023/12/12 04:54:48;;;;;;;4.75;1.80;;;24.00;31.30;;;;;;4887909;28;47294;-83
2023/12/12 04:57:13;;;;;;;4.00;1.43;;;24.00;31.40;;;;;;4890146;28;45156;-82
2023/12/12 04:59:39;;;;;;;3.73;1.47;;;24.00;31.30;;;;;;4905675;28;45574;-84
2023/12/12 05:02:05;;;;;;;4.38;1.35;;;24.00;31.30;;;;;;4930582;28;45853;-88
2023/12/12 05:04:31;;;;;;;4.30;1.60;;;24.00;31.30;;;;;;4921200;28;45582;-88
2023/12/12 05:06:57;;;;;;;4.18;1.63;;;24.00;31.30;;;;;;4906856;28;44985;-87
2023/12/12 05:09:23;;;;;;;3.23;1.47;;;24.00;31.30;;;;;;4935891;28;45403;-81
2023/12/12 05:11:49;;;;;;;3.25;1.42;;;24.00;31.30;;;;;;4921055;28;45594;-85
2023/12/12 05:14:15;;;;;;;4.07;1.40;;;24.00;31.30;;;;;;4921552;28;46057;-85
2023/12/12 05:16:41;;;;;;;3.70;1.60;;;23.90;31.30;;;;;;4914707;28;45239;-86
2023/12/12 05:19:07;;;;;;;4.07;1.30;;;24.00;31.30;;;;;;4912919;28;45637;-85
2023/12/12 05:21:33;;;;;;;3.65;1.20;;;24.00;31.30;;;;;;4904016;28;45570;-86
2023/12/12 05:23:59;;;;;;;3.57;1.43;;;23.90;31.20;;;;;;4921404;28;45532;-83
2023/12/12 05:26:25;;;;;;;3.93;1.60;;;23.90;31.20;;;;;;4929818;28;44670;-85
2023/12/12 05:28:51;;;;;;;3.87;1.57;;;23.90;31.20;;;;;;4905132;28;45272;-87
2023/12/12 05:31:16;;;;;;;2.97;1.33;;;23.90;31.20;;;;;;4931125;28;45128;-83
2023/12/12 05:33:42;;;;;;;4.30;1.40;;;23.90;31.20;;;;;;4936904;28;46423;-81
2023/12/12 05:36:09;;;;;;;3.13;1.13;;;23.90;31.20;;;;;;4919903;28;45028;-85
2023/12/12 05:38:34;;;;;;;3.30;1.40;;;23.90;31.20;;;;;;4920811;28;45322;-80
2023/12/12 05:41:02;;;;;;;3.07;1.40;;;23.90;31.20;;;;;;4919973;28;45286;-81
2023/12/12 05:43:27;;;;;;;4.25;1.30;;;23.90;31.20;;;;;;4935777;28;45690;-87
2023/12/12 05:45:54;;;;;;;2.92;1.50;;;23.90;31.20;;;;;;4931187;28;45831;-80
2023/12/12 05:48:20;;;;;;;4.25;1.60;;;23.90;31.20;;;;;;4906257;28;44745;-84
2023/12/12 05:50:46;;;;;;;3.10;1.40;;;23.90;31.20;;;;;;4904170;28;45578;-84
2023/12/12 05:53:12;;;;;;;2.72;1.30;;;23.90;31.30;;;;;;4926615;28;46478;-80
2023/12/12 05:55:38;;;;;;;3.47;1.42;;;23.90;31.20;;;;;;4934808;28;45143;-80
2023/12/12 05:58:04;;;;;;;3.57;1.70;;;23.90;31.30;;;;;;4923667;28;45359;-80
2023/12/12 06:00:31;;;;;;;3.83;1.60;;;23.90;31.20;;;;;;4931029;28;45395;-82
2023/12/12 06:02:57;;;;;;;3.28;1.63;;;23.80;31.20;;;;;;4936610;28;45078;-84
2023/12/12 06:05:39;;;;;;;3.27;1.40;;;23.80;31.20;;;;;;5017411;28;45812;-43
2023/12/12 06:08:04;;;;;;;4.03;1.50;;;23.80;31.20;;;;;;5021369;28;45520;-42
2023/12/12 06:10:30;;;;;;;4.03;1.40;;;23.80;31.90;;;;;;5012813;28;45074;-41
2023/12/12 06:12:56;;;;;;;4.27;1.77;;;23.80;31.20;;;;;;5025746;28;45254;-42
2023/12/12 06:15:22;;;;;;;3.70;1.60;;;23.80;31.20;;;;;;5015220;28;45220;-42
2023/12/12 06:17:47;;;;;;;3.17;1.40;;;23.80;31.20;;;;;;5020934;28;45452;-41
2023/12/12 06:20:13;;;;;;;3.23;1.50;;;23.80;31.20;;;;;;5018283;28;45308;-42
2023/12/12 06:22:39;;;;;;;3.63;1.53;;;23.80;31.20;;;;;;5008068;28;47774;-41
2023/12/12 06:25:06;;;;;;;2.97;1.20;;;23.80;31.30;;;;;;5026656;28;45885;-43
2023/12/12 06:27:33;;;;;;;3.67;1.42;;;23.80;31.20;;;;;;4989837;28;46207;-42
2023/12/12 06:29:58;;;;;;;4.57;1.48;;;23.80;31.20;;;;;;5027857;28;45405;-39
2023/12/12 06:32:24;;;;;;;4.72;1.60;;;23.80;31.20;;;;;;5002870;28;47873;-39
2023/12/12 06:34:49;;;;;;;3.28;1.20;;;23.80;31.30;;;;;;5024020;28;45576;-39
2023/12/12 06:37:15;;;;;;;3.58;1.25;;;23.70;31.20;;;;;;5007316;28;45708;-38
2023/12/12 06:39:41;;;;;;;3.63;1.50;;;23.80;31.20;;;;;;5027479;28;45196;-39
2023/12/12 06:42:06;;;;;;;2.13;1.20;;;23.70;31.20;;;;;;5018423;28;45621;-42
2023/12/12 06:44:32;;;;;;;4.05;1.45;;;23.70;31.20;;;;;;5022485;28;45134;-43
2023/12/12 06:46:58;;;;;;;3.40;1.50;;;23.70;31.20;;;;;;5009059;28;45410;-41
2023/12/12 06:49:23;;;;;;;4.13;1.60;;;23.70;31.20;;;;;;5023169;28;45257;-41
2023/12/12 06:51:49;;;;;;;3.53;1.50;;;23.70;31.20;;;;;;5016938;28;45503;-43
2023/12/12 06:54:15;;;;;;;2.80;1.37;;;23.70;31.20;;;;;;5024359;28;45742;-41
2023/12/12 06:56:41;;;;;;;3.53;1.48;;;23.70;31.20;;;;;;5015048;28;45883;-44
2023/12/12 06:59:07;;;;;;;3.60;1.20;;;23.70;31.20;;;;;;5028772;28;45311;-42
2023/12/12 07:01:33;;;;;;;2.67;1.10;;;23.70;31.20;;;;;;4999141;28;45866;-42
2023/12/12 07:03:58;;;;;;;3.85;1.42;;;23.70;31.20;;;;;;5026580;28;45239;-41
2023/12/12 07:06:25;;;;;;;2.67;1.38;;;23.70;31.20;;;;;;5006448;27;45099;-42
2023/12/12 07:08:51;;;;;;;2.73;1.30;;;23.70;31.20;;;;;;5024471;28;45267;-41
2023/12/12 07:11:16;;;;;;;3.42;1.40;;;23.70;31.30;;;;;;5015474;28;45160;-42
2023/12/12 07:13:42;;;;;;;3.38;1.30;;;23.70;31.30;;;;;;5026311;28;45252;-41
2023/12/12 07:16:10;;;;;;;3.35;1.48;;;23.70;31.30;;;;;;5004481;28;45030;-42
2023/12/12 07:18:37;;;;;;;3.10;1.50;;;23.70;31.30;;;;;;5008642;28;45529;-42
2023/12/12 07:21:03;;;;;;;3.03;1.40;;;23.70;31.30;;;;;;5002817;28;45250;-40
2023/12/12 07:23:29;;;;;;;4.03;1.42;;;23.70;31.30;;;;;;5007659;28;46232;-41
2023/12/12 07:25:56;;;;;;;3.42;1.50;;;23.70;31.30;;;;;;4998230;28;45749;-41
2023/12/12 07:28:22;;;;;;;3.88;1.45;;;23.60;31.30;;;;;;5011027;28;45608;-41
2023/12/12 07:30:48;;;;;;;3.27;1.30;;;23.60;31.30;;;;;;4996402;28;46069;-40
2023/12/12 07:33:13;;;;;;;3.20;1.40;;;23.60;31.30;;;;;;5008787;28;45633;-41
2023/12/12 07:35:39;;;;;;;3.17;1.40;;;23.60;31.30;;;;;;4998395;28;45823;-38
2023/12/12 07:38:05;;;;;;;3.97;1.48;;;23.60;31.30;;;;;;5009454;28;45172;-37
2023/12/12 07:40:30;;;;;;;4.50;1.70;;;23.60;31.30;;;;;;5004589;28;44962;-37
2023/12/12 07:42:56;;;;;;;3.67;1.70;;;23.60;31.30;;;;;;5015757;28;46398;-37
2023/12/12 07:45:22;;;;;;;2.72;1.25;;;23.60;31.30;;;;;;4980670;28;45602;-38
2023/12/12 07:47:48;;;;;;;2.53;1.17;;;23.60;31.30;;;;;;5007801;28;45266;-40
2023/12/12 07:50:16;;;;;;;3.88;1.35;;;23.60;31.30;;;;;;5002230;28;46926;-37
2023/12/12 07:52:42;;;;;;;3.38;1.35;;;23.60;31.40;;;;;;5013434;28;45232;-37
2023/12/12 07:55:09;;;;;;;2.78;1.50;;;23.60;31.30;;;;;;5005213;28;45795;-38
2023/12/12 07:57:35;;;;;;;3.17;1.45;;;23.60;31.30;;;;;;5006232;28;45371;-37
2023/12/12 08:00:01;;;;;;;3.92;1.48;;;23.60;31.30;;;;;;5016754;28;45218;-38
2023/12/12 08:02:27;;;;;;;3.30;1.43;;;23.60;31.40;;;;;;4986112;28;45977;-38
2023/12/12 08:04:53;;;;;;;3.37;1.60;;;23.60;32.00;;;;;;5007711;28;45587;-39
2023/12/12 08:07:18;;;;;;;4.82;1.65;;;23.50;31.30;;;;;;4957764;28;45503;-38
2023/12/12 08:09:44;;;;;;;2.53;1.25;;;23.50;31.30;;;;;;5006835;28;45810;-38
2023/12/12 08:12:10;;;;;;;4.25;1.45;;;23.50;31.30;;;;;;5004261;28;45149;-38
2023/12/12 08:14:35;;;;;;;2.70;1.20;;;23.50;31.30;;;;;;5017519;28;45587;-37
2023/12/12 08:17:01;;;;;;;3.03;1.17;;;23.50;31.30;;;;;;4997936;28;45350;-38
2023/12/12 08:19:26;;;;;;;2.70;1.30;;;23.50;31.30;;;;;;5004950;28;45638;-39
2023/12/12 08:21:52;;;;;;;3.07;1.33;;;23.50;31.30;;;;;;5001137;28;45339;-38
2023/12/12 08:24:17;;;;;;;4.03;1.60;;;23.50;31.30;;;;;;4998961;28;45679;-38
2023/12/12 08:26:43;;;;;;;3.50;1.23;;;23.50;31.30;;;;;;4992664;28;45583;-38
2023/12/12 08:29:15;;;;;;;3.00;1.60;;;23.50;31.30;;;;;;5015680;28;46311;-38
2023/12/12 08:31:41;;;;;;;3.65;1.50;;;23.50;31.30;;;;;;4971990;28;46037;-41
2023/12/12 08:34:07;;;;;;;3.47;1.50;;;23.50;31.40;;;;;;4999142;28;45476;-41
2023/12/12 08:36:33;;;;;;;3.13;1.33;;;23.50;31.40;;;;;;4996635;28;46144;-42
2023/12/12 08:38:59;;;;;;;2.95;1.33;;;23.50;31.40;;;;;;5008250;28;45357;-41
2023/12/12 08:41:30;;;;;;;3.30;1.60;;;23.50;31.40;;;;;;4994151;28;45193;-40
2023/12/12 08:43:59;;;;;;;3.63;1.67;;;23.50;31.40;;;;;;5011752;28;45523;-40
2023/12/12 08:46:26;;;;;;;3.35;1.27;;;23.50;31.40;;;;;;4992128;28;45802;-40
2023/12/12 08:48:58;;;;;;;3.00;1.40;;;23.50;31.40;;;;;;4997729;28;47593;-43
2023/12/12 08:51:24;;;;;;;3.50;1.40;;;23.50;31.40;;;;;;4995896;28;46070;-42
2023/12/12 08:53:49;;;;;;;3.10;1.52;;;23.50;31.40;;;;;;5004890;28;46594;-42
2023/12/12 08:56:16;;;;;;;3.53;1.47;;;23.50;31.40;;;;;;5004624;28;45433;-42
2023/12/12 08:58:43;;;;;;;2.72;1.30;;;23.40;31.40;;;;;;5010424;28;45223;-46
2023/12/12 09:01:09;;;;;;;4.47;1.80;;;23.40;31.40;;;;;;4985190;28;45351;-40
2023/12/12 09:03:34;;;;;;;3.60;1.48;;;23.40;31.40;;;;;;5002828;28;45510;-39
2023/12/12 09:06:00;;;;;;;3.30;1.35;;;23.40;31.50;;;;;;4985414;28;47707;-40
2023/12/12 09:08:26;;;;;;;2.70;1.35;;;23.40;31.40;;;;;;4967251;28;46038;-40
2023/12/12 09:10:52;;;;;;;3.50;1.67;;;23.40;31.40;;;;;;5002725;28;46324;-39
2023/12/12 09:13:17;;;;;;;3.78;1.40;;;23.40;31.40;;;;;;5011459;28;45232;-39
2023/12/12 09:15:43;;;;;;;2.67;1.50;;;23.40;31.40;;;;;;4993698;28;46151;-40
2023/12/12 09:18:09;;;;;;;3.05;1.50;;;23.40;31.50;;;;;;5015378;28;45521;-39
2023/12/12 09:20:35;;;;;;;3.75;1.60;;;23.40;31.50;;;;;;5000830;28;45966;-39
2023/12/12 09:23:00;;;;;;;3.73;1.33;;;23.40;31.50;;;;;;5017427;28;46171;-39
2023/12/12 09:25:26;;;;;;;2.97;1.33;;;23.40;31.50;;;;;;4975019;28;45624;-40
2023/12/12 09:27:52;;;;;;;3.28;1.33;;;23.40;31.50;;;;;;5012585;28;45627;-46
2023/12/12 09:30:18;;;;;;;2.88;1.40;;;23.40;31.60;;;;;;5002253;28;46656;-40
2023/12/12 09:32:44;;;;;;;4.18;1.70;;;23.40;31.50;;;;;;4968457;28;45347;-40
2023/12/12 09:35:10;;;;;;;2.90;1.45;;;23.30;31.50;;;;;;4990288;28;45731;-39
2023/12/12 09:37:36;;;;;;;3.83;1.65;;;23.40;31.60;;;;;;5001724;28;45399;-39
2023/12/12 09:40:03;;;;;;;4.13;1.80;;;23.30;31.50;;;;;;5012343;28;45626;-39
2023/12/12 09:42:30;;;;;;;2.78;1.45;;;23.30;31.50;;;;;;4966535;28;45588;-39
2023/12/12 09:44:59;;;;;;;3.85;1.73;;;23.30;31.50;;;;;;5010769;28;45264;-39
2023/12/12 09:47:27;;;;;;;3.65;1.52;;;23.30;31.60;;;;;;4983621;28;45275;-40
2023/12/12 09:49:54;;;;;;;4.50;1.77;;;23.30;31.60;;;;;;5001806;28;45582;-39
2023/12/12 09:52:19;;;;;;;3.50;1.60;;;23.30;31.60;;;;;;4993618;28;45275;-38
2023/12/12 09:54:45;;;;;;;4.13;1.80;;;23.30;31.60;;;;;;4960165;28;45094;-39
2023/12/12 09:57:10;;;;;;;3.00;1.47;;;23.30;31.60;;;;;;4995359;28;44867;-39
2023/12/12 09:59:36;;;;;;;4.00;1.70;;;23.30;31.60;;;;;;5011907;28;46338;-39
2023/12/12 10:02:02;;;;;;;3.03;1.50;;;23.30;31.60;;;;;;4974459;28;45291;-39
2023/12/12 10:04:28;;;;;;;3.95;1.80;;;23.30;31.70;;;;;;5001755;28;46068;-38
2023/12/12 10:06:53;;;;;;;4.10;1.80;;;23.30;31.70;;;;;;4966671;28;45537;-40
2023/12/12 10:09:21;;;;;;;3.83;1.80;;;23.30;31.60;;;;;;5004192;28;45627;-39
2023/12/12 10:11:46;;;;;;;3.58;1.77;;;23.30;31.60;;;;;;5000182;28;45205;-39
2023/12/12 10:14:12;;;;;;;3.97;1.75;;;23.30;31.70;;;;;;5013429;28;45540;-40
2023/12/12 10:16:37;;;;;;;4.30;1.75;;;23.30;31.70;;;;;;4981041;28;46212;-39
2023/12/12 10:19:03;;;;;;;4.22;1.67;;;23.30;31.70;;;;;;5006119;28;45497;-39
2023/12/12 10:21:28;;;;;;;3.47;1.67;;;23.30;31.70;;;;;;4997379;28;45199;-40
2023/12/12 10:23:54;;;;;;;5.07;1.50;;;23.30;31.80;;;;;;4987777;28;45316;-39
2023/12/12 10:26:31;;;;;;;2.92;1.60;;;23.20;31.70;;;;;;4999329;28;45516;-39
2023/12/12 10:28:57;;;;;;;3.30;1.50;;;23.20;31.70;;;;;;5003737;28;45421;-40
2023/12/12 10:31:23;;;;;;;3.77;1.70;;;23.20;31.70;;;;;;4989246;28;45228;-39
2023/12/12 10:33:49;;;;;;;3.75;1.65;;;23.20;31.70;;;;;;4991246;28;45834;-39
2023/12/12 10:36:14;;;;;;;2.97;1.60;;;23.20;31.70;;;;;;4987779;28;45838;-39
2023/12/12 10:38:40;;;;;;;2.77;1.53;;;23.20;31.70;;;;;;5001450;28;46071;-40
2023/12/12 10:41:16;;;;;;;3.93;1.80;;;23.20;31.80;;;;;;4998295;28;45453;-39
2023/12/12 10:43:43;;;;;;;5.43;1.75;;;23.20;31.80;;;;;;5008850;28;45826;-39
2023/12/12 10:46:12;;;;;;;4.05;1.80;;;23.20;31.80;;;;;;4990724;28;45486;-39
2023/12/12 10:48:48;;;;;;;3.55;1.80;;;23.20;31.80;;;;;;5000581;28;45779;-39
2023/12/12 10:51:14;;;;;;;3.47;1.60;;;23.20;31.80;;;;;;4989417;28;45224;-39
2023/12/12 10:53:41;;;;;;;3.53;1.60;;;23.20;31.80;;;;;;5004128;28;45477;-40
2023/12/12 10:56:07;;;;;;;3.08;1.70;;;23.20;31.80;;;;;;4998926;28;44966;-39
2023/12/12 10:58:33;;;;;;;3.05;1.60;;;23.20;31.80;;;;;;4997602;28;46505;-39
2023/12/12 11:01:00;;;;;;;3.42;1.80;;;23.20;31.90;;;;;;4991112;28;45910;-39
2023/12/12 11:03:26;;;;;;;3.37;1.83;;;23.20;31.90;;;;;;5008569;28;45582;-39
2023/12/12 11:05:52;;;;;;;3.70;1.60;;;23.20;31.90;;;;;;5002725;28;45768;-39
2023/12/12 11:08:18;;;;;;;4.22;1.92;;;23.10;31.80;;;;;;4989063;28;46020;-39
2023/12/12 11:10:46;;;;;;;3.92;1.60;;;23.20;31.90;;;;;;4998194;28;45355;-39
2023/12/12 11:13:12;;;;;;;2.80;1.67;;;23.10;31.90;;;;;;5010815;28;47768;-39
2023/12/12 11:15:37;;;;;;;2.97;1.70;;;23.10;31.90;;;;;;4995175;28;45836;-40
2023/12/12 11:18:08;;;;;;;4.10;1.77;;;23.10;31.90;;;;;;4989545;28;45515;-39
2023/12/12 11:20:36;;;;;;;3.28;1.63;;;23.10;31.90;;;;;;4998357;28;45310;-40
2023/12/12 11:23:05;;;;;;;3.80;1.63;;;23.10;31.90;;;;;;4997839;28;47738;-39
2023/12/12 11:25:31;;;;;;;2.70;1.63;;;23.10;32.00;;;;;;4975735;28;45688;-39
2023/12/12 11:27:57;;;;;;;4.70;2.00;;;23.10;32.00;;;;;;5008251;28;45128;-40
2023/12/12 11:30:31;;;;;;;3.67;1.75;;;23.10;32.00;;;;;;4996754;28;45651;-40
2023/12/12 11:32:56;;;;;;;4.00;1.67;;;23.10;32.00;;;;;;5006023;28;45172;-40
2023/12/12 11:35:31;;;;;;;3.53;1.60;;;23.10;32.00;;;;;;4977328;28;46467;-39
2023/12/12 11:37:59;;;;;;;4.00;1.70;;;23.10;32.00;;;;;;5006912;28;45573;-40
2023/12/12 11:40:26;;;;;;;2.78;1.48;;;23.10;32.00;;;;;;4986780;28;45614;-39
2023/12/12 11:42:54;;;;;;;3.60;1.70;;;23.10;32.10;;;;;;4991233;28;45353;-39
2023/12/12 11:45:37;;;;;;;3.00;1.40;;;23.10;32.10;;;;;;4997130;28;44897;-39
2023/12/12 11:48:06;;;;;;;3.67;1.70;;;23.00;32.00;;;;;;5000855;28;45677;-39
2023/12/12 11:50:33;;;;;;;2.63;1.33;;;23.10;32.10;;;;;;4999782;28;45329;-39
2023/12/12 11:53:01;;;;;;;2.95;1.70;;;23.10;32.10;;;;;;5013381;28;45352;-40
2023/12/12 11:55:32;;;;;;;3.70;1.67;;;23.00;32.00;;;;;;4980321;28;45887;-39
2023/12/12 11:58:07;;;;;;;2.88;1.45;;;23.10;32.10;;;;;;5005548;28;46825;-38
2023/12/12 12:00:37;;;;;;;2.88;1.52;;;23.10;32.20;;;;;;4990669;28;45760;-39
2023/12/12 12:03:04;;;;;;;2.88;1.52;;;23.00;32.10;;;;;;5007241;28;45459;-39
2023/12/12 12:05:30;;;;;;;3.08;1.63;;;23.00;32.10;;;;;;4991981;28;45328;-39
2023/12/12 12:07:56;;;;;;;2.47;1.50;;;23.00;32.10;;;;;;5006083;28;45426;-39
2023/12/12 12:10:22;;;;;;;3.45;1.40;;;23.00;32.20;;;;;;4992729;28;45528;-39
2023/12/12 12:12:52;;;;;;;3.15;1.40;;;23.00;32.20;;;;;;4998609;28;46563;-39
2023/12/12 12:15:18;;;;;;;2.88;1.45;;;23.00;32.20;;;;;;4998096;28;45406;-40
2023/12/12 12:17:43;;;;;;;3.40;1.50;;;23.00;32.20;;;;;;4995370;28;45545;-39
2023/12/12 12:20:09;;;;;;;2.50;1.50;;;23.00;32.20;;;;;;5003357;28;45064;-39
2023/12/12 12:22:39;;;;;;;1.97;1.40;;;23.00;32.20;;;;;;5007781;28;45441;-39
2023/12/12 12:25:06;;;;;;;2.67;1.70;;;23.00;32.20;;;;;;4993392;28;45064;-38
2023/12/12 12:28:08;;;;;;;3.13;1.40;;;23.00;32.30;;;;;;4987357;28;45474;-39
2023/12/12 12:30:46;;;;;;;3.10;1.30;;;22.90;32.20;;;;;;4991723;28;45227;-39
2023/12/12 12:33:13;;;;;;;2.65;1.50;;;22.90;32.20;;;;;;5009590;28;45296;-39
2023/12/12 12:35:49;;;;;;;3.42;1.30;;;23.00;32.30;;;;;;4971955;28;45250;-40
2023/12/12 12:38:28;;;;;;;3.53;1.60;;;22.90;32.30;;;;;;4993361;28;46518;-40
2023/12/12 12:40:54;;;;;;;2.95;1.50;;;23.00;32.30;;;;;;4996329;28;45212;-39
2023/12/12 12:43:19;;;;;;;2.70;1.40;;;22.90;32.30;;;;;;5013569;28;45321;-39
2023/12/12 12:45:45;;;;;;;2.53;1.37;;;22.90;32.30;;;;;;4960392;28;48683;-40
2023/12/12 12:48:11;;;;;;;3.03;1.47;;;22.90;32.30;;;;;;5002971;28;45274;-39
2023/12/12 12:50:41;;;;;;;2.75;1.40;;;22.90;32.40;;;;;;4996664;28;45644;-39
2023/12/12 12:53:07;;;;;;;2.77;1.30;;;22.90;32.40;;;;;;4998888;28;46179;-39
2023/12/12 12:55:33;;;;;;;2.50;1.50;;;22.90;32.40;;;;;;4998072;28;45451;-40
2023/12/12 12:57:58;;;;;;;2.50;1.30;;;22.90;32.40;;;;;;4991264;28;47109;-39
2023/12/12 13:00:26;;;;;;;2.65;1.45;;;22.90;32.50;;;;;;4985286;28;45337;-39
2023/12/12 13:02:51;;;;;;;3.15;1.35;;;22.90;32.40;;;;;;4997516;28;45196;-39
2023/12/12 13:05:17;;;;;;;2.80;1.40;;;22.90;32.40;;;;;;4997681;28;45606;-39
2023/12/12 13:07:43;;;;;;;2.47;1.20;;;22.90;32.40;;;;;;4998280;28;45690;-39
2023/12/12 13:10:15;;;;;;;3.00;1.40;;;22.90;32.50;;;;;;4999249;28;45431;-38
2023/12/12 13:12:40;;;;;;;1.97;1.00;;;22.90;32.50;;;;;;5004030;28;45380;-39
2023/12/12 13:15:07;;;;;;;3.17;1.40;;;22.90;32.50;;;;;;4984351;28;47818;-39
2023/12/12 13:17:33;;;;;;;2.97;1.58;;;22.90;32.50;;;;;;4992468;28;46899;-40
2023/12/12 13:20:00;;;;;;;2.37;1.40;;;22.90;32.50;;;;;;5006023;28;45162;-40
2023/12/12 13:22:28;;;;;;;2.33;1.20;;;22.90;32.50;;;;;;4998081;28;44908;-40
2023/12/12 13:24:55;;;;;;;3.43;1.50;;;22.90;32.50;;;;;;5004661;28;45519;-39
2023/12/12 13:27:21;;;;;;;2.40;1.30;;;22.90;32.50;;;;;;4993755;28;45433;-39
2023/12/12 13:29:46;;;;;;;2.63;1.33;;;22.90;32.60;;;;;;4994313;28;45223;-39
2023/12/12 13:32:12;;;;;;;1.95;1.10;;;22.90;32.50;;;;;;4977570;28;45212;-40
2023/12/12 13:34:37;;;;;;;1.83;1.27;;;22.80;32.50;;;;;;5002977;28;45238;-40
2023/12/12 13:37:04;;;;;;;2.70;1.30;;;22.90;32.60;;;;;;4974228;28;47646;-39
2023/12/12 13:39:30;;;;;;;1.88;1.13;;;22.90;32.60;;;;;;4982742;28;45955;-39
2023/12/12 13:41:56;;;;;;;1.63;1.10;;;22.80;32.60;;;;;;4989613;28;45356;-39
2023/12/12 13:44:22;;;;;;;2.20;1.23;;;22.80;32.60;;;;;;5011366;28;45682;-40
2023/12/12 13:46:48;;;;;;;1.92;1.30;;;22.80;32.60;;;;;;4991318;28;45953;-39
2023/12/12 13:49:14;;;;;;;2.60;1.23;;;22.80;32.60;;;;;;5007190;28;46212;-38
2023/12/12 13:51:39;;;;;;;2.28;1.25;;;22.80;32.70;;;;;;4997596;28;45321;-40
2023/12/12 13:54:05;;;;;;;2.72;1.40;;;22.80;32.70;;;;;;5001007;28;46205;-39
2023/12/12 13:56:30;;;;;;;1.70;1.10;;;22.80;32.60;;;;;;4981767;28;45514;-39
2023/12/12 13:58:56;;;;;;;1.67;1.13;;;22.80;32.60;;;;;;4999311;28;45270;-39
2023/12/12 14:01:21;;;;;;;2.05;1.27;;;22.80;32.70;;;;;;4991496;28;45360;-39
2023/12/12 14:03:47;;;;;;;1.98;1.20;;;22.80;32.70;;;;;;5000388;28;45283;-40
2023/12/12 14:06:12;;;;;;;1.63;0.95;;;22.80;32.70;;;;;;4984301;28;45412;-39
2023/12/12 14:08:38;;;;;;;2.20;1.20;;;22.80;32.70;;;;;;5006485;28;45208;-39
2023/12/12 14:11:04;;;;;;;2.45;1.30;;;22.80;32.70;;;;;;4976648;28;45919;-39
2023/12/12 14:13:29;;;;;;;1.98;1.10;;;22.80;32.70;;;;;;4998267;28;45580;-40
2023/12/12 14:15:55;;;;;;;2.03;1.15;;;22.80;32.70;;;;;;4988522;28;45778;-39
2023/12/12 14:18:21;;;;;;;2.15;1.05;;;22.80;32.80;;;;;;5001480;28;44976;-39
2023/12/12 14:20:47;;;;;;;1.45;1.00;;;22.70;32.70;;;;;;4986667;28;45858;-39
2023/12/12 14:23:13;;;;;;;2.17;1.20;;;22.80;32.80;;;;;;5006453;28;45642;-40
2023/12/12 14:25:39;;;;;;;1.50;1.20;;;22.80;32.80;;;;;;4994809;28;45326;-39
2023/12/12 14:28:06;;;;;;;1.60;1.00;;;22.80;32.80;;;;;;4985399;28;45361;-38
2023/12/12 14:30:32;;;;;;;2.13;1.17;;;22.70;32.80;;;;;;4991580;28;45178;-39
2023/12/12 14:32:58;;;;;;;1.73;1.03;;;22.80;32.80;;;;;;4999788;28;45237;-40
2023/12/12 14:35:24;;;;;;;1.73;1.00;;;22.70;32.80;;;;;;4997450;28;45310;-40
2023/12/12 14:37:51;;;;;;;1.42;1.08;;;22.70;32.80;;;;;;4990466;28;46183;-40
2023/12/12 14:40:17;;;;;;;1.98;1.30;;;22.70;32.80;;;;;;4985013;28;45482;-40
2023/12/12 14:42:44;;;;;;;2.80;1.50;;;22.70;32.80;;;;;;5004287;28;45343;-40
2023/12/12 14:45:10;;;;;;;2.83;1.77;;;22.70;32.90;;;;;;5000296;28;45566;-43
2023/12/12 14:47:36;;;;;;;3.38;2.80;;;22.70;32.90;;;;;;4994575;28;45274;-39
2023/12/12 14:50:02;;;;;;;7.43;5.33;;;22.70;32.90;;;;;;5002021;28;45189;-40
2023/12/12 14:52:28;;;;;;;7.22;5.70;;;22.70;32.90;;;;;;4991042;28;45399;-40
2023/12/12 14:54:54;;;;;;;7.90;5.65;;;22.70;33.00;;;;;;5012835;28;46565;-39
2023/12/12 14:57:19;;;;;;;6.40;4.97;;;22.70;33.00;;;;;;4985908;28;45786;-39
2023/12/12 14:59:45;;;;;;;8.13;5.32;;;22.70;33.00;;;;;;5014658;28;45381;-40
2023/12/12 15:02:12;;;;;;;6.15;4.72;;;22.70;33.10;;;;;;4992348;28;46846;-38
2023/12/12 15:04:37;;;;;;;5.45;4.22;;;22.70;33.10;;;;;;5014832;28;45744;-38
2023/12/12 15:07:03;;;;;;;6.77;5.10;;;22.70;33.20;;;;;;5001320;28;45485;-38
2023/12/12 15:09:29;;;;;;;5.87;4.97;;;22.70;33.20;;;;;;5011162;28;45316;-39
2023/12/12 15:11:54;;;;;;;6.17;4.33;;;22.70;33.30;;;;;;4982616;28;45282;-39
2023/12/12 15:14:20;;;;;;;5.23;4.10;;;22.70;33.30;;;;;;5013411;28;46040;-38
2023/12/12 15:16:45;;;;;;;5.07;4.20;;;22.70;33.30;;;;;;4995027;28;45282;-39
2023/12/12 15:19:11;;;;;;;5.77;4.33;;;22.70;33.40;;;;;;5008313;28;45911;-39
2023/12/12 15:21:37;;;;;;;4.93;4.10;;;22.70;33.40;;;;;;5004743;28;45246;-39
2023/12/12 15:24:02;;;;;;;4.50;3.70;;;22.70;33.40;;;;;;5008635;28;46089;-39
2023/12/12 15:26:28;;;;;;;5.30;3.70;;;22.70;33.50;;;;;;5006485;28;45272;-39
2023/12/12 15:28:55;;;;;;;5.03;3.70;;;22.80;33.50;;;;;;4991038;28;46187;-39
2023/12/12 15:31:21;;;;;;;4.60;3.70;;;22.80;33.50;;;;;;4992503;28;45555;-45
2023/12/12 15:33:47;;;;;;;4.25;3.60;;;22.80;33.60;;;;;;5009216;28;45886;-40
2023/12/12 15:36:12;;;;;;;4.45;3.47;;;22.80;33.60;;;;;;5005187;28;47186;-39
2023/12/12 15:38:38;;;;;;;3.97;3.38;;;22.80;33.60;;;;;;5010716;28;45230;-37
2023/12/12 15:41:04;;;;;;;4.75;3.00;;;22.80;33.60;;;;;;4975625;28;45921;-37
2023/12/12 15:43:29;;;;;;;4.18;3.00;;;22.80;33.70;;;;;;5005049;28;45608;-39
2023/12/12 15:45:55;;;;;;;4.25;3.20;;;22.80;33.70;;;;;;4967749;28;45656;-37
2023/12/12 15:48:20;;;;;;;3.97;3.03;;;22.80;33.70;;;;;;5008883;28;45608;-37
2023/12/12 15:50:46;;;;;;;3.33;2.80;;;22.80;33.70;;;;;;5002514;28;47646;-40
2023/12/12 15:53:11;;;;;;;3.70;2.78;;;22.90;33.70;;;;;;5008108;28;47063;-40
2023/12/12 15:55:39;;;;;;;3.65;3.10;;;22.90;33.80;;;;;;4984314;28;45619;-39
2023/12/12 15:58:05;;;;;;;3.58;2.83;;;23.00;33.80;;;;;;5005874;28;45351;-37
2023/12/12 16:00:31;;;;;;;3.23;2.70;;;22.90;33.70;;;;;;4992276;28;45309;-39
2023/12/12 16:02:57;;;;;;;3.25;2.70;;;23.00;33.80;;;;;;5007506;28;45153;-37
2023/12/12 16:05:23;;;;;;;4.03;2.80;;;23.00;33.80;;;;;;5001452;28;45629;-40
2023/12/12 16:07:48;;;;;;;3.33;2.70;;;23.00;33.80;;;;;;5006971;28;46206;-38
2023/12/12 16:10:14;;;;;;;3.30;2.57;;;23.00;33.70;;;;;;4989506;28;46136;-39
2023/12/12 16:12:39;;;;;;;2.70;2.27;;;23.10;33.80;;;;;;4982080;28;46692;-39
2023/12/12 16:15:08;;;;;;;3.40;2.43;;;23.10;33.80;;;;;;4989657;28;45796;-39
2023/12/12 16:17:38;;;;;;;2.63;2.20;;;23.10;33.80;;;;;;4989030;28;45681;-39
2023/12/12 16:20:07;;;;;;;3.13;2.30;;;23.10;33.80;;;;;;4997123;28;45637;-40
2023/12/12 16:22:33;;;;;;;2.92;2.35;;;23.10;33.80;;;;;;5004704;28;45637;-39
2023/12/12 16:24:59;;;;;;;3.92;2.70;;;23.20;33.80;;;;;;4997695;28;45243;-39
2023/12/12 16:27:24;;;;;;;3.00;2.20;;;23.20;33.80;;;;;;4995312;28;45288;-39
2023/12/12 16:29:50;;;;;;;3.20;2.33;;;23.20;33.80;;;;;;5002225;28;45571;-39
2023/12/12 16:32:16;;;;;;;3.03;2.35;;;23.20;33.80;;;;;;4957515;28;45477;-39
2023/12/12 16:34:42;;;;;;;2.90;2.30;;;23.30;33.80;;;;;;5005210;28;45354;-39
2023/12/12 16:37:08;;;;;;;2.40;1.93;;;23.30;33.80;;;;;;4992496;28;45313;-39
2023/12/12 16:39:34;;;;;;;2.42;2.05;;;23.30;33.70;;;;;;4997478;28;45715;-39
2023/12/12 16:42:00;;;;;;;3.90;2.00;;;23.30;33.70;;;;;;4970877;28;45907;-39
2023/12/12 16:44:25;;;;;;;3.10;1.95;;;23.30;33.70;;;;;;5007318;28;45127;-39